Time;durP1;ratioP1;P1;durP2;ratioP2;P2;SDS_P1;SDS_P2;PMS_P1;PMS_P2;Temp;Humidity;BMP_temperature;BMP_pressure;BME280_temperature;BME280_humidity;BME280_pressure;Samples;Min_cycle;Max_cycle;Signal;HPM_P1;HPM_P2
2022/06/22 00:00:28;;;;;;;;;;;20.60;69.80;;;;;;5067115;28;994;-71
2022/06/22 00:02:54;;;;;;;;;;;20.60;69.80;;;;;;5074246;28;1376;-71
2022/06/22 00:05:21;;;;;;;;;;;20.60;69.80;;;;;;5073962;28;1240;-71
2022/06/22 00:07:51;;;;;;;;;;;20.60;69.80;;;;;;5074100;28;1322;-71
2022/06/22 00:10:19;;;;;;;;;;;20.60;69.80;;;;;;5073786;28;1341;-71
2022/06/22 00:12:51;;;;;;;;;;;20.60;69.80;;;;;;5075434;28;1360;-71
2022/06/22 00:15:20;;;;;;;;;;;20.60;69.80;;;;;;5074032;28;1324;-71
2022/06/22 00:17:45;;;;;;;;;;;20.60;69.80;;;;;;5073717;28;1961;-71
2022/06/22 00:20:11;;;;;;;;;;;20.60;69.80;;;;;;5071143;28;1174;-71
2022/06/22 00:22:46;;;;;;;;;;;20.60;69.80;;;;;;5068720;28;1134;-71
2022/06/22 00:25:13;;;;;;;;;;;20.60;69.80;;;;;;5072884;28;1710;-71
2022/06/22 00:27:39;;;;;;;;;;;20.60;69.80;;;;;;5073614;28;1297;-71
2022/06/22 00:30:20;;;;;;;;;;;20.60;69.80;;;;;;5074153;28;1431;-71
2022/06/22 00:32:52;;;;;;;;;;;20.60;69.80;;;;;;5074934;28;1391;-71
2022/06/22 00:35:36;;;;;;;;;;;20.60;69.80;;;;;;5074832;28;1378;-71
2022/06/22 00:38:02;;;;;;;;;;;20.60;69.80;;;;;;5073852;28;1910;-71
2022/06/22 00:40:27;;;;;;;;;;;20.60;69.80;;;;;;5074473;28;1348;-71
2022/06/22 00:42:53;;;;;;;;;;;20.60;69.80;;;;;;5073190;28;1292;-71
2022/06/22 00:45:22;;;;;;;;;;;20.60;70.60;;;;;;5073502;28;1316;-71
2022/06/22 00:47:54;;;;;;;;;;;20.70;69.90;;;;;;5073290;28;1323;-71
2022/06/22 00:50:21;;;;;;;;;;;20.60;69.80;;;;;;5073215;28;1313;-71
2022/06/22 00:53:00;;;;;;;;;;;20.60;69.80;;;;;;5071951;28;1335;-71
2022/06/22 00:55:32;;;;;;;;;;;20.60;69.80;;;;;;5064188;28;1307;-71
2022/06/22 00:58:02;;;;;;;;;;;20.70;70.30;;;;;;5067792;28;1973;-72
2022/06/22 01:00:28;;;;;;;;;;;20.60;69.80;;;;;;5070648;28;1274;-72
2022/06/22 01:03:04;;;;;;;;;;;20.60;69.90;;;;;;5066158;28;1152;-71
2022/06/22 01:05:42;;;;;;;;;;;20.60;69.90;;;;;;5061095;28;1394;-70
2022/06/22 01:08:28;;;;;;;;;;;20.60;69.80;;;;;;5047792;28;2251;-72
2022/06/22 01:11:05;;;;;;;;;;;20.60;70.60;;;;;;5062684;28;1434;-72
2022/06/22 01:13:40;;;;;;;;;;;20.60;69.90;;;;;;5061660;28;1075;-73
2022/06/22 01:16:17;;;;;;;;;;;20.60;69.90;;;;;;5061273;28;1215;-71
2022/06/22 01:18:44;;;;;;;;;;;20.60;69.90;;;;;;5064891;28;1903;-72
2022/06/22 01:21:23;;;;;;;;;;;20.60;69.90;;;;;;5063591;28;1141;-72
2022/06/22 01:23:58;;;;;;;;;;;20.60;69.90;;;;;;5066094;28;1115;-72
2022/06/22 01:26:27;;;;;;;;;;;20.60;69.90;;;;;;5066153;28;1078;-72
2022/06/22 01:28:58;;;;;;;;;;;20.60;69.90;;;;;;5062378;28;1177;-72
2022/06/22 01:31:24;;;;;;;;;;;20.70;70.00;;;;;;5053009;28;1170;-72
2022/06/22 01:33:50;;;;;;;;;;;20.60;69.90;;;;;;5072437;28;1641;-73
2022/06/22 01:36:25;;;;;;;;;;;20.60;69.90;;;;;;5055731;28;1308;-72
2022/06/22 01:38:51;;;;;;;;;;;20.60;69.90;;;;;;5072420;28;1902;-71
2022/06/22 01:41:28;;;;;;;;;;;20.60;69.90;;;;;;5059908;28;1054;-73
2022/06/22 01:44:09;;;;;;;;;;;20.60;69.90;;;;;;5073637;28;1106;-73
2022/06/22 01:46:37;;;;;;;;;;;20.60;69.90;;;;;;5064376;28;1209;-72
2022/06/22 01:49:11;;;;;;;;;;;20.60;69.90;;;;;;5060089;28;1074;-72
2022/06/22 01:51:38;;;;;;;;;;;20.60;70.00;;;;;;5065297;28;1123;-73
2022/06/22 01:54:05;;;;;;;;;;;20.60;70.00;;;;;;5065515;28;1285;-72
2022/06/22 01:56:34;;;;;;;;;;;20.60;69.90;;;;;;5072159;28;1297;-72
2022/06/22 01:59:05;;;;;;;;;;;20.60;70.00;;;;;;5073141;28;1910;-72
2022/06/22 02:01:49;;;;;;;;;;;20.60;70.00;;;;;;5071796;28;1145;-71
2022/06/22 02:04:33;;;;;;;;;;;20.60;70.00;;;;;;5071693;28;1332;-71
2022/06/22 02:10:00;;;;;;;;;;;20.60;70.00;;;;;;5072180;28;1301;-71
2022/06/22 02:12:28;;;;;;;;;;;20.60;69.90;;;;;;5054878;28;1274;-71
2022/06/22 02:15:02;;;;;;;;;;;20.60;70.00;;;;;;5073262;28;1431;-71
2022/06/22 02:17:28;;;;;;;;;;;20.60;70.00;;;;;;5071765;28;1957;-71
2022/06/22 02:20:12;;;;;;;;;;;20.60;70.00;;;;;;5068508;28;1390;-71
2022/06/22 02:22:38;;;;;;;;;;;20.60;70.00;;;;;;5073025;28;1320;-71
2022/06/22 02:25:03;;;;;;;;;;;20.60;70.00;;;;;;5071610;28;1347;-71
2022/06/22 02:27:29;;;;;;;;;;;20.60;70.00;;;;;;5073162;28;1254;-71
2022/06/22 02:29:56;;;;;;;;;;;20.60;70.00;;;;;;5071403;28;1343;-71
2022/06/22 02:32:23;;;;;;;;;;;20.60;70.00;;;;;;5060194;28;1388;-71
2022/06/22 02:34:51;;;;;;;;;;;20.60;70.00;;;;;;5071664;28;1619;-71
2022/06/22 02:37:17;;;;;;;;;;;20.60;70.10;;;;;;5071619;28;1897;-71
2022/06/22 02:39:44;;;;;;;;;;;20.60;70.10;;;;;;5071584;28;1234;-71
2022/06/22 02:44:54;;;;;;;;;;;20.60;70.00;;;;;;5072265;28;1422;-72
2022/06/22 02:47:31;;;;;;;;;;;20.60;70.00;;;;;;5054780;28;1258;-73
2022/06/22 02:50:02;;;;;;;;;;;20.60;70.00;;;;;;5071195;28;1310;-72
2022/06/22 02:52:31;;;;;;;;;;;20.60;70.10;;;;;;5072805;28;1334;-73
2022/06/22 02:54:57;;;;;;;;;;;20.60;70.10;;;;;;5071210;28;1304;-72
2022/06/22 02:57:28;;;;;;;;;;;20.60;70.10;;;;;;5052922;28;1982;-73
2022/06/22 02:59:54;;;;;;;;;;;20.60;70.10;;;;;;5061248;28;1149;-72
2022/06/22 03:02:20;;;;;;;;;;;20.60;70.10;;;;;;5068356;28;1388;-72
2022/06/22 03:04:46;;;;;;;;;;;20.60;70.10;;;;;;5049031;28;1412;-72
2022/06/22 03:07:12;;;;;;;;;;;20.60;70.10;;;;;;5066229;28;1169;-70
2022/06/22 03:09:37;;;;;;;;;;;20.60;70.30;;;;;;5075446;28;1336;-71
2022/06/22 03:12:03;;;;;;;;;;;20.60;70.10;;;;;;5074381;28;1071;-71
2022/06/22 03:14:33;;;;;;;;;;;20.60;70.10;;;;;;5064667;28;1291;-71
2022/06/22 03:16:59;;;;;;;;;;;20.60;70.10;;;;;;5069539;28;1969;-71
2022/06/22 03:19:33;;;;;;;;;;;20.60;70.10;;;;;;5072699;28;1082;-71
2022/06/22 03:21:59;;;;;;;;;;;20.60;70.10;;;;;;5074750;28;1083;-71
2022/06/22 03:24:24;;;;;;;;;;;20.60;70.10;;;;;;5076289;28;1705;-71
2022/06/22 03:26:51;;;;;;;;;;;20.60;70.10;;;;;;5076086;28;1259;-70
2022/06/22 03:29:22;;;;;;;;;;;20.60;70.10;;;;;;5075062;28;1325;-70
2022/06/22 03:31:48;;;;;;;;;;;20.60;70.10;;;;;;5073990;28;1193;-71
2022/06/22 03:34:15;;;;;;;;;;;20.60;70.10;;;;;;5074759;28;1685;-71
2022/06/22 03:36:43;;;;;;;;;;;20.60;70.10;;;;;;5058203;28;1253;-70
2022/06/22 03:39:09;;;;;;;;;;;20.60;70.10;;;;;;5074882;28;1123;-70
2022/06/22 03:41:37;;;;;;;;;;;20.60;70.10;;;;;;5074517;28;1266;-70
2022/06/22 03:44:11;;;;;;;;;;;20.60;70.10;;;;;;5074358;28;1372;-71
2022/06/22 03:46:40;;;;;;;;;;;20.60;70.10;;;;;;5074772;28;1417;-71
2022/06/22 03:49:24;;;;;;;;;;;20.60;70.20;;;;;;5066315;28;1110;-70
2022/06/22 03:51:51;;;;;;;;;;;20.60;70.20;;;;;;5061390;28;1338;-71
2022/06/22 03:54:37;;;;;;;;;;;20.60;70.20;;;;;;5074320;28;1338;-71
2022/06/22 03:57:03;;;;;;;;;;;20.60;70.10;;;;;;5073562;28;1906;-71
2022/06/22 03:59:29;;;;;;;;;;;20.60;70.10;;;;;;5075925;28;1358;-71
2022/06/22 04:01:55;;;;;;;;;;;20.60;70.10;;;;;;5075277;28;1087;-71
2022/06/22 04:04:23;;;;;;;;;;;20.60;70.10;;;;;;5074184;28;1379;-70
2022/06/22 04:06:49;;;;;;;;;;;20.60;70.20;;;;;;5074509;28;1388;-71
2022/06/22 04:09:16;;;;;;;;;;;20.60;70.10;;;;;;5075800;28;1256;-73
2022/06/22 04:11:51;;;;;;;;;;;20.60;70.20;;;;;;5072787;28;1301;-71
2022/06/22 04:14:18;;;;;;;;;;;20.60;70.10;;;;;;5074040;28;1342;-71
2022/06/22 04:16:44;;;;;;;;;;;20.60;70.20;;;;;;5074359;28;1898;-70
2022/06/22 04:19:26;;;;;;;;;;;20.60;70.20;;;;;;5071787;28;1305;-70
2022/06/22 04:22:00;;;;;;;;;;;20.60;70.10;;;;;;5073877;28;1321;-71
2022/06/22 04:24:30;;;;;;;;;;;20.60;70.20;;;;;;5074237;28;1365;-71
2022/06/22 04:27:10;;;;;;;;;;;20.60;70.20;;;;;;5075441;28;1214;-71
2022/06/22 04:29:38;;;;;;;;;;;20.60;70.20;;;;;;5073967;28;1288;-71
2022/06/22 04:32:06;;;;;;;;;;;20.60;70.20;;;;;;5074421;28;1086;-72
2022/06/22 04:34:52;;;;;;;;;;;20.60;70.20;;;;;;5074793;28;1655;-70
2022/06/22 04:37:23;;;;;;;;;;;20.60;70.20;;;;;;5074483;28;1901;-70
2022/06/22 04:39:50;;;;;;;;;;;20.60;70.20;;;;;;5074727;28;1411;-70
2022/06/22 04:42:16;;;;;;;;;;;20.60;70.20;;;;;;5073358;28;1292;-71
2022/06/22 04:44:43;;;;;;;;;;;20.60;70.20;;;;;;5056662;28;1439;-70
2022/06/22 04:47:14;;;;;;;;;;;20.60;70.20;;;;;;5073575;28;1091;-70
2022/06/22 04:49:44;;;;;;;;;;;20.60;70.20;;;;;;5074521;28;1365;-70
2022/06/22 04:52:13;;;;;;;;;;;20.60;70.20;;;;;;5073307;28;1290;-70
2022/06/22 04:54:40;;;;;;;;;;;20.60;70.20;;;;;;5073296;28;1374;-70
2022/06/22 04:57:16;;;;;;;;;;;20.60;70.20;;;;;;5074322;28;1917;-70
2022/06/22 04:59:42;;;;;;;;;;;20.60;70.20;;;;;;5073246;28;1111;-70
2022/06/22 05:02:09;;;;;;;;;;;20.60;70.30;;;;;;5073136;28;1060;-71
2022/06/22 05:04:35;;;;;;;;;;;20.60;70.20;;;;;;5072948;28;1370;-72
2022/06/22 05:07:23;;;;;;;;;;;20.60;70.30;;;;;;5073134;28;1352;-72
2022/06/22 05:09:48;;;;;;;;;;;20.60;70.30;;;;;;5072820;28;1071;-71
2022/06/22 05:12:15;;;;;;;;;;;20.60;70.20;;;;;;5074064;28;1285;-71
2022/06/22 05:14:41;;;;;;;;;;;20.60;70.40;;;;;;5074189;28;1382;-71
2022/06/22 05:17:11;;;;;;;;;;;20.60;70.40;;;;;;5072831;28;1918;-71
2022/06/22 05:19:42;;;;;;;;;;;20.60;70.70;;;;;;5046141;28;2236;-67
2022/06/22 05:22:12;;;;;;;;;;;20.60;70.40;;;;;;5065876;28;1904;-67
2022/06/22 05:24:41;;;;;;;;;;;20.60;70.60;;;;;;5060364;28;1725;-66
2022/06/22 05:27:07;;;;;;;;;;;20.60;70.00;;;;;;5058012;28;1322;-67
2022/06/22 05:29:36;;;;;;;;;;;20.60;70.20;;;;;;5072506;28;1369;-66
2022/06/22 05:32:03;;;;;;;;;;;20.60;69.90;;;;;;5072261;28;1286;-65
2022/06/22 05:34:30;;;;;;;;;;;20.60;69.90;;;;;;5071997;28;1587;-67
2022/06/22 05:36:59;;;;;;;;;;;20.60;69.80;;;;;;5060176;28;1898;-65
2022/06/22 05:39:25;;;;;;;;;;;20.60;69.60;;;;;;5072304;28;1286;-67
2022/06/22 05:41:50;;;;;;;;;;;20.60;70.10;;;;;;5072130;28;1418;-65
2022/06/22 05:44:17;;;;;;;;;;;20.60;69.10;;;;;;5072082;28;1299;-66
2022/06/22 05:47:03;;;;;;;;;;;20.60;69.20;;;;;;5072445;28;1364;-66
2022/06/22 05:49:30;;;;;;;;;;;20.60;69.60;;;;;;5072832;28;1280;-66
2022/06/22 05:51:57;;;;;;;;;;;20.60;69.20;;;;;;5072014;28;1293;-66
2022/06/22 05:54:27;;;;;;;;;;;20.70;69.20;;;;;;5066338;28;1366;-66
2022/06/22 05:56:59;;;;;;;;;;;20.60;68.80;;;;;;5064064;28;1971;-66
2022/06/22 05:59:30;;;;;;;;;;;20.60;69.00;;;;;;5065916;28;1278;-65
2022/06/22 06:01:57;;;;;;;;;;;20.60;68.50;;;;;;5072918;28;1270;-70
2022/06/22 06:04:32;;;;;;;;;;;20.60;68.80;;;;;;5071948;28;1330;-71
2022/06/22 06:07:27;;;;;;;;;;;20.60;68.80;;;;;;5071967;28;1255;-70
2022/06/22 06:09:52;;;;;;;;;;;20.60;68.10;;;;;;5063222;28;1605;-72
2022/06/22 06:12:22;;;;;;;;;;;20.60;68.70;;;;;;5066778;28;1414;-67
2022/06/22 06:14:49;;;;;;;;;;;20.60;68.40;;;;;;5071600;28;1331;-67
2022/06/22 06:17:21;;;;;;;;;;;20.60;68.40;;;;;;5072881;28;1977;-67
2022/06/22 06:19:51;;;;;;;;;;;20.60;68.40;;;;;;5070044;28;1106;-65
2022/06/22 06:22:16;;;;;;;;;;;20.60;68.30;;;;;;5071231;28;1305;-67
2022/06/22 06:27:34;;;;;;;;;;;20.60;67.80;;;;;;5071870;28;1285;-68
2022/06/22 06:30:02;;;;;;;;;;;20.60;67.50;;;;;;5069384;28;1251;-68
2022/06/22 06:32:30;;;;;;;;;;;20.60;67.10;;;;;;5061927;28;1341;-67
2022/06/22 06:34:59;;;;;;;;;;;20.60;66.70;;;;;;5068028;28;1393;-67
2022/06/22 06:37:44;;;;;;;;;;;20.60;66.40;;;;;;5054664;28;1955;-67
2022/06/22 06:40:11;;;;;;;;;;;20.70;66.30;;;;;;5072658;28;1403;-69
2022/06/22 06:42:38;;;;;;;;;;;20.60;66.20;;;;;;5071409;28;1295;-69
2022/06/22 06:45:08;;;;;;;;;;;20.60;66.10;;;;;;5071258;28;1307;-68
2022/06/22 06:47:34;;;;;;;;;;;20.60;65.70;;;;;;5071452;28;1245;-68
2022/06/22 06:50:11;;;;;;;;;;;20.60;65.40;;;;;;5071342;28;1315;-68
2022/06/22 06:52:55;;;;;;;;;;;20.60;65.50;;;;;;5072559;28;1308;-67
2022/06/22 06:55:30;;;;;;;;;;;20.60;65.30;;;;;;5072764;28;1368;-67
2022/06/22 06:58:12;;;;;;;;;;;20.60;65.20;;;;;;5072202;28;1975;-66
2022/06/22 07:00:37;;;;;;;;;;;20.70;63.60;;;;;;5071011;28;1259;-70
2022/06/22 07:03:04;;;;;;;;;;;20.70;63.20;;;;;;5072383;28;1304;-70
2022/06/22 07:05:29;;;;;;;;;;;20.70;63.20;;;;;;5071142;28;1334;-72
2022/06/22 07:07:57;;;;;;;;;;;20.70;61.80;;;;;;5072457;28;1268;-72
2022/06/22 07:10:32;;;;;;;;;;;20.70;61.70;;;;;;5070839;28;1364;-71
2022/06/22 07:13:02;;;;;;;;;;;20.70;62.40;;;;;;5071170;28;1263;-71
2022/06/22 07:15:39;;;;;;;;;;;20.70;63.60;;;;;;5071242;28;1361;-71
2022/06/22 07:18:18;;;;;;;;;;;20.70;63.80;;;;;;5070572;28;1969;-72
2022/06/22 07:20:45;;;;;;;;;;;20.70;63.40;;;;;;5069602;28;1316;-70
2022/06/22 07:23:12;;;;;;;;;;;20.70;63.50;;;;;;5071731;28;1242;-69
2022/06/22 07:25:40;;;;;;;;;;;20.70;63.20;;;;;;5070364;28;1744;-70
2022/06/22 07:28:09;;;;;;;;;;;20.70;63.20;;;;;;5070266;28;1353;-70
2022/06/22 07:30:36;;;;;;;;;;;20.70;62.40;;;;;;5070106;28;1173;-69
2022/06/22 07:33:02;;;;;;;;;;;20.70;63.50;;;;;;5071671;28;1351;-70
2022/06/22 07:35:35;;;;;;;;;;;20.70;62.50;;;;;;5071389;28;1283;-70
2022/06/22 07:38:04;;;;;;;;;;;20.70;62.30;;;;;;5069985;28;1898;-71
2022/06/22 07:40:29;;;;;;;;;;;20.70;61.50;;;;;;5071294;28;1296;-72
2022/06/22 07:42:55;;;;;;;;;;;20.70;61.50;;;;;;5071489;28;1019;-71
2022/06/22 07:45:21;;;;;;;;;;;20.70;60.70;;;;;;5069789;28;1207;-70
2022/06/22 07:47:54;;;;;;;;;;;20.70;59.70;;;;;;5071624;28;1166;-70
2022/06/22 07:50:24;;;;;;;;;;;20.80;60.10;;;;;;5062508;28;1290;-70
2022/06/22 07:52:58;;;;;;;;;;;20.80;59.30;;;;;;5073801;28;1381;-70
2022/06/22 07:55:35;;;;;;;;;;;20.80;59.60;;;;;;5073992;28;1286;-70
2022/06/22 07:58:11;;;;;;;;;;;20.80;59.60;;;;;;5073643;28;1894;-71
2022/06/22 08:00:38;;;;;;;;;;;20.80;59.80;;;;;;5073966;28;1086;-70
2022/06/22 08:03:10;;;;;;;;;;;20.80;58.90;;;;;;5060451;28;1110;-70
2022/06/22 08:05:36;;;;;;;;;;;20.80;59.30;;;;;;5074788;28;1230;-71
2022/06/22 08:08:18;;;;;;;;;;;20.80;59.30;;;;;;5073626;28;902;-70
2022/06/22 08:10:45;;;;;;;;;;;20.80;59.40;;;;;;5072878;28;1316;-70
2022/06/22 08:13:15;;;;;;;;;;;20.80;58.90;;;;;;5072961;28;1290;-70
2022/06/22 08:15:45;;;;;;;;;;;20.80;58.50;;;;;;5074343;28;1325;-71
2022/06/22 08:18:10;;;;;;;;;;;20.80;58.50;;;;;;5072018;28;1893;-71
2022/06/22 08:20:37;;;;;;;;;;;20.80;58.40;;;;;;5072444;28;1110;-71
2022/06/22 08:23:04;;;;;;;;;;;20.80;58.90;;;;;;5074346;28;842;-72
2022/06/22 08:25:30;;;;;;;;;;;20.80;59.10;;;;;;5072373;28;1272;-71
2022/06/22 08:27:56;;;;;;;;;;;20.80;58.70;;;;;;5074255;28;937;-70
2022/06/22 08:30:21;;;;;;;;;;;20.80;58.20;;;;;;5072444;28;1078;-70
2022/06/22 08:32:51;;;;;;;;;;;20.80;58.10;;;;;;5074427;28;1438;-70
2022/06/22 08:35:23;;;;;;;;;;;20.90;58.00;;;;;;5068872;28;1288;-70
2022/06/22 08:37:53;;;;;;;;;;;20.90;57.50;;;;;;5049134;28;1955;-70
2022/06/22 08:40:21;;;;;;;;;;;20.90;57.20;;;;;;5072624;28;1326;-70
2022/06/22 08:42:53;;;;;;;;;;;20.90;58.10;;;;;;5073736;28;1201;-70
2022/06/22 08:45:23;;;;;;;;;;;20.90;59.00;;;;;;5081398;22;3741;-70
2022/06/22 08:48:07;;;;;;;;;;;20.90;58.80;;;;;;5096728;28;1096;-72
2022/06/22 08:50:45;;;;;;;;;;;20.90;58.90;;;;;;5113966;28;1066;-73
2022/06/22 08:53:19;;;;;;;;;;;20.90;59.10;;;;;;5096092;28;1344;-72
2022/06/22 08:55:51;;;;;;;;;;;20.90;58.70;;;;;;5096038;28;1354;-73
2022/06/22 08:58:25;;;;;;;;;;;20.90;58.40;;;;;;5078536;28;1967;-73
2022/06/22 09:01:03;;;;;;;;;;;20.90;58.20;;;;;;5096234;28;1132;-73
2022/06/22 09:03:43;;;;;;;;;;;20.90;58.10;;;;;;5095457;28;1783;-73
2022/06/22 09:06:28;;;;;;;;;;;20.90;57.50;;;;;;5093367;28;1290;-73
2022/06/22 09:09:16;;;;;;;;;;;20.90;57.80;;;;;;5093285;28;1133;-72
2022/06/22 09:11:41;;;;;;;;;;;20.90;57.80;;;;;;5077849;28;1092;-73
2022/06/22 09:14:16;;;;;;;;;;;20.90;57.80;;;;;;5084233;28;1314;-73
2022/06/22 09:16:54;;;;;;;;;;;20.90;57.60;;;;;;5096381;28;1186;-73
2022/06/22 09:19:20;;;;;;;;;;;21.00;57.60;;;;;;5071709;28;1662;-73
2022/06/22 09:22:04;;;;;;;;;;;21.00;57.60;;;;;;5100660;28;1280;-73
2022/06/22 09:24:36;;;;;;;;;;;21.00;57.00;;;;;;5075091;28;1306;-73
2022/06/22 09:27:16;;;;;;;;;;;21.00;56.80;;;;;;5092869;28;1287;-73
2022/06/22 09:29:41;;;;;;;;;;;21.00;56.20;;;;;;5074747;28;1360;-73
2022/06/22 09:32:13;;;;;;;;;;;21.00;57.00;;;;;;5110559;28;1110;-73
2022/06/22 09:34:51;;;;;;;;;;;21.00;58.90;;;;;;5095233;28;1632;-72
2022/06/22 09:37:43;;;;;;;;;;;21.00;58.50;;;;;;5074782;28;1902;-72
2022/06/22 09:40:16;;;;;;;;;;;21.00;58.00;;;;;;5090119;28;1181;-72
2022/06/22 09:42:46;;;;;;;;;;;21.00;57.40;;;;;;5074597;28;1119;-72
2022/06/22 09:45:15;;;;;;;;;;;21.00;56.80;;;;;;5094018;28;1279;-72
2022/06/22 09:48:02;;;;;;;;;;;21.00;56.60;;;;;;5095283;28;1621;-71
2022/06/22 09:50:48;;;;;;;;;;;21.00;56.40;;;;;;5112867;28;1370;-72
2022/06/22 09:53:28;;;;;;;;;;;21.10;55.90;;;;;;5113010;28;1329;-72
2022/06/22 09:59:17;;;;;;;;;;;21.10;57.90;;;;;;5001785;28;1930;-72
2022/06/22 10:01:59;;;;;;;;;;;21.10;58.50;;;;;;5053669;28;1247;-73
2022/06/22 10:04:27;;;;;;;;;;;21.10;58.80;;;;;;5073152;28;1254;-73
2022/06/22 10:06:55;;;;;;;;;;;21.10;58.60;;;;;;5087309;28;1198;-74
2022/06/22 10:09:21;;;;;;;;;;;21.00;57.90;;;;;;5091115;28;1278;-74
2022/06/22 10:12:10;;;;;;;;;;;21.10;57.50;;;;;;5091700;28;999;-73
2022/06/22 10:15:07;;;;;;;;;;;21.00;57.70;;;;;;5071580;28;1327;-73
2022/06/22 10:17:48;;;;;;;;;;;21.10;57.30;;;;;;5054928;28;1957;-73
2022/06/22 10:20:32;;;;;;;;;;;21.10;56.80;;;;;;5102853;28;1134;-72
2022/06/22 10:23:09;;;;;;;;;;;21.10;56.60;;;;;;5112338;28;1248;-73
2022/06/22 10:25:40;;;;;;;;;;;21.10;56.70;;;;;;5112735;28;1315;-73
2022/06/22 10:28:24;;;;;;;;;;;21.10;56.70;;;;;;5112594;28;1311;-73
2022/06/22 10:30:56;;;;;;;;;;;21.10;56.50;;;;;;5103345;28;1077;-73
2022/06/22 10:33:21;;;;;;;;;;;21.20;56.50;;;;;;5074056;28;1495;-73
2022/06/22 10:35:47;;;;;;;;;;;21.20;56.40;;;;;;5092210;28;1286;-73
2022/06/22 10:38:31;;;;;;;;;;;21.20;56.60;;;;;;5092061;28;1906;-73
2022/06/22 10:46:54;;;;;;;;;;;21.20;56.30;;;;;;5081908;28;2092;-73
2022/06/22 10:49:27;;;;;;;;;;;21.20;56.30;;;;;;5071233;28;2022;-73
2022/06/22 10:52:12;;;;;;;;;;;21.20;56.30;;;;;;5069752;28;1089;-73
2022/06/22 10:54:49;;;;;;;;;;;21.20;56.60;;;;;;5083330;28;1333;-73
2022/06/22 10:57:24;;;;;;;;;;;21.20;55.80;;;;;;5076853;28;1967;-73
2022/06/22 10:59:54;;;;;;;;;;;21.20;55.90;;;;;;5097062;28;1166;-72
2022/06/22 11:02:26;;;;;;;;;;;21.20;56.20;;;;;;5074422;28;1169;-72
2022/06/22 11:05:10;;;;;;;;;;;21.20;56.30;;;;;;5090392;28;1278;-72
2022/06/22 11:07:35;;;;;;;;;;;21.20;56.70;;;;;;5099808;28;1305;-72
2022/06/22 11:10:10;;;;;;;;;;;21.20;56.40;;;;;;5105237;28;1319;-71
2022/06/22 11:12:54;;;;;;;;;;;21.20;56.20;;;;;;5097975;28;1879;-72
2022/06/22 11:15:33;;;;;;;;;;;21.20;55.50;;;;;;5080763;28;1653;-72
2022/06/22 11:18:08;;;;;;;;;;;21.20;55.00;;;;;;5094932;28;1976;-72
2022/06/22 11:20:53;;;;;;;;;;;21.20;55.60;;;;;;5070816;28;1337;-71
2022/06/22 11:23:36;;;;;;;;;;;21.20;55.60;;;;;;5095587;28;1465;-72
2022/06/22 11:31:59;;;;;;;;;;;21.20;56.20;;;;;;5096058;28;1260;-72
2022/06/22 11:34:36;;;;;;;;;;;21.30;56.30;;;;;;5099973;28;1596;-72
2022/06/22 11:37:02;;;;;;;;;;;21.20;56.10;;;;;;5095407;28;1967;-72
2022/06/22 11:39:46;;;;;;;;;;;21.30;55.80;;;;;;5095414;28;1374;-72
2022/06/22 11:42:18;;;;;;;;;;;21.20;53.60;;;;;;5095089;28;1277;-72
2022/06/22 11:47:53;;;;;;;;;;;21.30;53.50;;;;;;5095405;28;1159;-71
2022/06/22 11:50:26;;;;;;;;;;;21.30;52.30;;;;;;5095214;28;1290;-71
2022/06/22 11:53:14;;;;;;;;;;;21.30;52.80;;;;;;5077391;28;1438;-72
2022/06/22 11:55:41;;;;;;;;;;;21.30;53.40;;;;;;5062368;28;1330;-71
2022/06/22 11:58:14;;;;;;;;;;;21.30;53.90;;;;;;5076598;28;1914;-70
2022/06/22 12:00:58;;;;;;;;;;;21.30;54.20;;;;;;5077521;28;1287;-71
2022/06/22 12:03:29;;;;;;;;;;;21.30;55.20;;;;;;5096100;28;1276;-71
2022/06/22 12:05:54;;;;;;;;;;;21.30;55.20;;;;;;5077661;28;1203;-69
2022/06/22 12:08:26;;;;;;;;;;;21.30;55.30;;;;;;5089736;28;1190;-70
2022/06/22 12:11:00;;;;;;;;;;;21.30;55.30;;;;;;5099162;28;1263;-70
2022/06/22 12:15:04;;;;;;;;;;;21.30;55.20;;;;;;5098253;28;1300;-69
2022/06/22 12:16:31;;;;;;;;;;;21.30;55.10;;;;;;5115350;28;1357;-70
2022/06/22 12:18:56;;;;;;;;;;;21.30;54.90;;;;;;5088523;28;1901;-70
2022/06/22 12:21:35;;;;;;;;;;;21.30;54.10;;;;;;5090655;28;1160;-69
2022/06/22 12:24:00;;;;;;;;;;;21.30;53.70;;;;;;5071731;28;1368;-70
2022/06/22 12:26:29;;;;;;;;;;;21.30;53.90;;;;;;5092342;28;1375;-70
2022/06/22 12:29:14;;;;;;;;;;;21.30;53.40;;;;;;5086653;28;1308;-70
2022/06/22 12:31:41;;;;;;;;;;;21.30;53.50;;;;;;5050946;28;1232;-69
2022/06/22 12:34:10;;;;;;;;;;;21.30;52.90;;;;;;5088959;28;1287;-70
2022/06/22 12:36:35;;;;;;;;;;;21.40;52.70;;;;;;5085939;28;1277;-69
2022/06/22 12:39:12;;;;;;;;;;;21.30;52.30;;;;;;5092480;28;1965;-69
2022/06/22 12:41:40;;;;;;;;;;;21.40;52.50;;;;;;5091702;28;1179;-70
2022/06/22 12:44:11;;;;;;;;;;;21.30;52.40;;;;;;5077106;28;1296;-69
2022/06/22 12:46:37;;;;;;;;;;;21.30;52.90;;;;;;5076768;28;1252;-70
2022/06/22 12:49:06;;;;;;;;;;;21.30;53.80;;;;;;5095073;28;1267;-70
2022/06/22 12:51:33;;;;;;;;;;;21.30;54.40;;;;;;5071446;28;1345;-70
2022/06/22 12:53:58;;;;;;;;;;;21.30;54.40;;;;;;5073519;28;1259;-70
2022/06/22 12:56:26;;;;;;;;;;;21.30;53.80;;;;;;5095703;28;1339;-70
2022/06/22 12:58:51;;;;;;;;;;;21.30;52.80;;;;;;5093545;28;1901;-70
2022/06/22 13:01:17;;;;;;;;;;;21.30;52.30;;;;;;5089366;28;1642;-70
2022/06/22 13:03:43;;;;;;;;;;;21.30;50.70;;;;;;5094446;28;1286;-69
2022/06/22 13:06:09;;;;;;;;;;;21.30;51.00;;;;;;5079634;28;1303;-70
2022/06/22 13:08:34;;;;;;;;;;;21.40;51.70;;;;;;5076468;28;1051;-70
2022/06/22 13:11:16;;;;;;;;;;;21.40;52.00;;;;;;5076087;28;1279;-70
2022/06/22 13:13:51;;;;;;;;;;;21.30;51.10;;;;;;5076503;28;1309;-69
2022/06/22 13:16:18;;;;;;;;;;;21.40;51.50;;;;;;5094555;28;1284;-69
2022/06/22 13:19:04;;;;;;;;;;;21.40;51.20;;;;;;5076921;28;1905;-69
2022/06/22 13:21:54;;;;;;;;;;;21.40;51.10;;;;;;5113872;28;1277;-70
2022/06/22 13:24:22;;;;;;;;;;;21.40;51.20;;;;;;5114819;28;1245;-71
2022/06/22 13:27:06;;;;;;;;;;;21.40;51.50;;;;;;5114681;28;1356;-71
2022/06/22 13:29:43;;;;;;;;;;;21.40;51.10;;;;;;5114590;28;1282;-72
2022/06/22 13:32:09;;;;;;;;;;;21.40;48.20;;;;;;5076502;28;1106;-74
2022/06/22 13:34:36;;;;;;;;;;;21.40;47.40;;;;;;5076037;28;1674;-74
2022/06/22 13:37:08;;;;;;;;;;;21.50;46.30;;;;;;5094003;28;1368;-71
2022/06/22 13:39:40;;;;;;;;;;;21.50;46.90;;;;;;5075946;28;1344;-71
2022/06/22 13:42:17;;;;;;;;;;;21.50;47.60;;;;;;5093722;28;1062;-70
2022/06/22 13:44:50;;;;;;;;;;;21.50;48.60;;;;;;5093588;28;1402;-72
2022/06/22 13:47:16;;;;;;;;;;;21.50;46.50;;;;;;5075853;28;1045;-72
2022/06/22 13:49:44;;;;;;;;;;;21.50;46.90;;;;;;5093914;28;1309;-71
2022/06/22 13:52:15;;;;;;;;;;;21.50;46.50;;;;;;5075905;28;1335;-72
2022/06/22 13:54:40;;;;;;;;;;;21.50;47.50;;;;;;5093844;28;1289;-71
2022/06/22 13:57:06;;;;;;;;;;;21.50;46.70;;;;;;5093874;28;1906;-72
2022/06/22 13:59:38;;;;;;;;;;;21.60;47.60;;;;;;5093627;28;1312;-72
2022/06/22 14:02:07;;;;;;;;;;;21.60;48.00;;;;;;5093551;28;1338;-71
2022/06/22 14:04:33;;;;;;;;;;;21.60;46.90;;;;;;5075754;28;1380;-72
2022/06/22 14:07:12;;;;;;;;;;;21.60;44.90;;;;;;5075388;28;1370;-71
2022/06/22 14:09:40;;;;;;;;;;;21.50;45.90;;;;;;5093749;28;1249;-71
2022/06/22 14:12:22;;;;;;;;;;;21.50;47.20;;;;;;5075279;28;1184;-71
2022/06/22 14:15:02;;;;;;;;;;;21.50;49.60;;;;;;5058740;28;1337;-71
2022/06/22 14:17:44;;;;;;;;;;;21.50;49.40;;;;;;5075093;28;1902;-71
2022/06/22 14:20:16;;;;;;;;;;;21.50;48.50;;;;;;5089172;28;1145;-72
2022/06/22 14:22:46;;;;;;;;;;;21.50;44.90;;;;;;5095745;28;1272;-72
2022/06/22 14:25:13;;;;;;;;;;;21.50;44.70;;;;;;5095490;28;1252;-72
2022/06/22 14:27:41;;;;;;;;;;;21.50;45.20;;;;;;5113712;28;1039;-71
2022/06/22 14:30:11;;;;;;;;;;;21.50;44.30;;;;;;5110243;28;1312;-72
2022/06/22 14:32:55;;;;;;;;;;;21.50;44.60;;;;;;5075334;28;1375;-71
2022/06/22 14:35:21;;;;;;;;;;;21.50;44.00;;;;;;5093206;28;1298;-71
2022/06/22 14:38:07;;;;;;;;;;;21.50;43.00;;;;;;5093478;28;1937;-70
2022/06/22 14:40:36;;;;;;;;;;;21.60;44.20;;;;;;5059726;28;1122;-71
2022/06/22 14:43:04;;;;;;;;;;;21.60;44.80;;;;;;5075098;28;1389;-72
2022/06/22 14:45:32;;;;;;;;;;;21.50;46.40;;;;;;5074875;28;1271;-70
2022/06/22 14:48:24;;;;;;;;;;;21.50;47.60;;;;;;5092022;28;1302;-71
2022/06/22 14:50:50;;;;;;;;;;;21.50;47.20;;;;;;5107723;28;1328;-71
2022/06/22 14:53:39;;;;;;;;;;;21.50;46.90;;;;;;5095124;28;1268;-71
2022/06/22 14:56:17;;;;;;;;;;;21.50;46.10;;;;;;5098896;28;1323;-71
2022/06/22 14:59:01;;;;;;;;;;;21.50;46.70;;;;;;5094972;28;1901;-71
2022/06/22 15:01:33;;;;;;;;;;;21.50;47.10;;;;;;5113155;28;1256;-71
2022/06/22 15:03:58;;;;;;;;;;;21.50;45.70;;;;;;5093920;28;1433;-72
2022/06/22 15:06:46;;;;;;;;;;;21.50;45.70;;;;;;5092758;28;1301;-73
2022/06/22 15:09:17;;;;;;;;;;;21.50;46.20;;;;;;5078616;28;1067;-73
2022/06/22 15:14:49;;;;;;;;;;;21.50;45.90;;;;;;5089504;28;923;-73
2022/06/22 15:17:17;;;;;;;;;;;21.50;46.40;;;;;;5067997;28;1961;-73
2022/06/22 15:19:55;;;;;;;;;;;21.50;47.50;;;;;;5086476;28;1397;-73
2022/06/22 15:22:22;;;;;;;;;;;21.50;47.90;;;;;;5095181;28;1405;-73
2022/06/22 15:24:53;;;;;;;;;;;21.50;47.80;;;;;;5081750;28;1739;-72
2022/06/22 15:27:23;;;;;;;;;;;21.50;47.10;;;;;;5073712;28;1302;-73